sensor_id;sensor_type;location;lat;lon;timestamp;temperature;humidity
15107;DHT22;7654;45.308;-75.096;2022-08-21T01:49:28;21.50;99.90
15107;DHT22;7654;45.308;-75.096;2022-08-21T01:52:03;21.50;99.90
15107;DHT22;7654;45.308;-75.096;2022-08-21T01:54:46;21.50;99.90
15107;DHT22;7654;45.308;-75.096;2022-08-21T01:57:22;21.40;99.90
15107;DHT22;7654;45.308;-75.096;2022-08-21T01:59:52;21.40;99.90
15107;DHT22;7654;45.308;-75.096;2022-08-21T02:02:26;21.40;99.90
15107;DHT22;7654;45.308;-75.096;2022-08-21T02:04:57;21.30;99.90
15107;DHT22;7654;45.308;-75.096;2022-08-21T02:07:27;21.30;99.90
15107;DHT22;7654;45.308;-75.096;2022-08-21T02:09:57;21.20;99.90
15107;DHT22;7654;45.308;-75.096;2022-08-21T02:12:27;21.20;99.90
15107;DHT22;7654;45.308;-75.096;2022-08-21T02:14:57;21.10;99.90
15107;DHT22;7654;45.308;-75.096;2022-08-21T02:17:36;21.10;99.90
15107;DHT22;7654;45.308;-75.096;2022-08-21T02:20:08;21.20;99.90
15107;DHT22;7654;45.308;-75.096;2022-08-21T02:22:42;21.20;99.90
15107;DHT22;7654;45.308;-75.096;2022-08-21T02:25:15;21.20;99.90
15107;DHT22;7654;45.308;-75.096;2022-08-21T02:27:49;21.30;99.90
15107;DHT22;7654;45.308;-75.096;2022-08-21T02:30:22;21.30;99.90
15107;DHT22;7654;45.308;-75.096;2022-08-21T02:32:52;21.20;99.90
15107;DHT22;7654;45.308;-75.096;2022-08-21T02:35:24;21.10;99.90
15107;DHT22;7654;45.308;-75.096;2022-08-21T02:37:55;21.10;99.90
15107;DHT22;7654;45.308;-75.096;2022-08-21T02:40:36;21.10;99.90
15107;DHT22;7654;45.308;-75.096;2022-08-21T02:43:10;21.00;99.90
15107;DHT22;7654;45.308;-75.096;2022-08-21T02:45:39;20.90;99.90
15107;DHT22;7654;45.308;-75.096;2022-08-21T02:48:11;20.80;99.90
15107;DHT22;7654;45.308;-75.096;2022-08-21T02:50:43;20.70;99.90
15107;DHT22;7654;45.308;-75.096;2022-08-21T02:53:13;20.60;99.90
15107;DHT22;7654;45.308;-75.096;2022-08-21T02:55:44;20.50;99.90
15107;DHT22;7654;45.308;-75.096;2022-08-21T02:58:20;20.40;99.90
15107;DHT22;7654;45.308;-75.096;2022-08-21T03:00:51;20.30;99.90
15107;DHT22;7654;45.308;-75.096;2022-08-21T03:03:20;20.20;99.90
15107;DHT22;7654;45.308;-75.096;2022-08-21T03:05:54;20.10;99.90
15107;DHT22;7654;45.308;-75.096;2022-08-21T03:08:24;20.10;99.90
15107;DHT22;7654;45.308;-75.096;2022-08-21T03:10:54;20.00;99.90
15107;DHT22;7654;45.308;-75.096;2022-08-21T03:13:24;19.90;99.90
15107;DHT22;7654;45.308;-75.096;2022-08-21T03:15:54;19.90;99.90
15107;DHT22;7654;45.308;-75.096;2022-08-21T03:18:24;19.80;99.90
15107;DHT22;7654;45.308;-75.096;2022-08-21T03:20:55;19.80;99.90
15107;DHT22;7654;45.308;-75.096;2022-08-21T03:23:26;19.80;99.90
15107;DHT22;7654;45.308;-75.096;2022-08-21T03:25:58;19.70;99.90
15107;DHT22;7654;45.308;-75.096;2022-08-21T03:28:28;19.80;99.90
15107;DHT22;7654;45.308;-75.096;2022-08-21T03:30:58;19.90;99.90
15107;DHT22;7654;45.308;-75.096;2022-08-21T03:33:28;20.00;99.90
15107;DHT22;7654;45.308;-75.096;2022-08-21T03:36:00;20.00;99.90
15107;DHT22;7654;45.308;-75.096;2022-08-21T03:38:34;20.00;99.90
15107;DHT22;7654;45.308;-75.096;2022-08-21T03:41:04;20.00;99.90
15107;DHT22;7654;45.308;-75.096;2022-08-21T03:43:34;20.00;99.90
15107;DHT22;7654;45.308;-75.096;2022-08-21T03:46:05;19.90;99.90
15107;DHT22;7654;45.308;-75.096;2022-08-21T03:48:35;19.80;99.90
15107;DHT22;7654;45.308;-75.096;2022-08-21T03:51:06;19.80;99.90
15107;DHT22;7654;45.308;-75.096;2022-08-21T03:53:36;19.80;99.90
15107;DHT22;7654;45.308;-75.096;2022-08-21T03:56:06;19.80;99.90
15107;DHT22;7654;45.308;-75.096;2022-08-21T03:58:36;19.70;99.90
15107;DHT22;7654;45.308;-75.096;2022-08-21T04:01:06;19.70;99.90
15107;DHT22;7654;45.308;-75.096;2022-08-21T04:03:37;19.60;99.90
15107;DHT22;7654;45.308;-75.096;2022-08-21T04:06:08;19.50;99.90
15107;DHT22;7654;45.308;-75.096;2022-08-21T04:08:38;19.50;99.90
15107;DHT22;7654;45.308;-75.096;2022-08-21T04:11:10;19.50;99.90
15107;DHT22;7654;45.308;-75.096;2022-08-21T04:13:41;19.40;99.90
15107;DHT22;7654;45.308;-75.096;2022-08-21T04:16:11;19.30;99.90
15107;DHT22;7654;45.308;-75.096;2022-08-21T04:18:41;19.20;99.90
15107;DHT22;7654;45.308;-75.096;2022-08-21T04:21:12;19.20;99.90
15107;DHT22;7654;45.308;-75.096;2022-08-21T04:23:42;19.20;99.90
15107;DHT22;7654;45.308;-75.096;2022-08-21T04:26:12;19.10;99.90
15107;DHT22;7654;45.308;-75.096;2022-08-21T04:28:42;19.00;99.90
15107;DHT22;7654;45.308;-75.096;2022-08-21T04:31:11;19.00;99.90
15107;DHT22;7654;45.308;-75.096;2022-08-21T04:33:41;18.90;99.90
15107;DHT22;7654;45.308;-75.096;2022-08-21T04:36:13;18.90;99.90
15107;DHT22;7654;45.308;-75.096;2022-08-21T04:38:48;18.90;99.90
15107;DHT22;7654;45.308;-75.096;2022-08-21T04:41:20;18.90;99.90
15107;DHT22;7654;45.308;-75.096;2022-08-21T04:43:54;18.90;99.90
15107;DHT22;7654;45.308;-75.096;2022-08-21T04:46:24;19.00;99.90
15107;DHT22;7654;45.308;-75.096;2022-08-21T04:48:54;19.00;99.90
15107;DHT22;7654;45.308;-75.096;2022-08-21T04:51:25;19.00;99.90
15107;DHT22;7654;45.308;-75.096;2022-08-21T04:53:58;19.00;99.90
15107;DHT22;7654;45.308;-75.096;2022-08-21T04:56:29;19.00;99.90
15107;DHT22;7654;45.308;-75.096;2022-08-21T04:59:04;19.00;99.90
15107;DHT22;7654;45.308;-75.096;2022-08-21T05:01:35;19.00;99.90
15107;DHT22;7654;45.308;-75.096;2022-08-21T05:04:05;18.90;99.90
15107;DHT22;7654;45.308;-75.096;2022-08-21T05:06:39;18.80;99.90
15107;DHT22;7654;45.308;-75.096;2022-08-21T05:09:11;18.70;99.90
15107;DHT22;7654;45.308;-75.096;2022-08-21T05:11:42;18.70;99.90
15107;DHT22;7654;45.308;-75.096;2022-08-21T05:14:12;18.80;99.90
15107;DHT22;7654;45.308;-75.096;2022-08-21T05:16:41;18.80;99.90
15107;DHT22;7654;45.308;-75.096;2022-08-21T05:19:12;18.70;99.90
15107;DHT22;7654;45.308;-75.096;2022-08-21T05:21:45;18.60;99.90
15107;DHT22;7654;45.308;-75.096;2022-08-21T05:24:16;18.60;99.90
15107;DHT22;7654;45.308;-75.096;2022-08-21T05:26:46;18.50;99.90
15107;DHT22;7654;45.308;-75.096;2022-08-21T05:29:16;18.50;99.90
15107;DHT22;7654;45.308;-75.096;2022-08-21T05:31:46;18.50;99.90
15107;DHT22;7654;45.308;-75.096;2022-08-21T05:34:17;18.50;99.90
15107;DHT22;7654;45.308;-75.096;2022-08-21T05:36:49;18.50;99.90
15107;DHT22;7654;45.308;-75.096;2022-08-21T05:39:18;18.50;99.90
15107;DHT22;7654;45.308;-75.096;2022-08-21T05:41:48;18.50;99.90
15107;DHT22;7654;45.308;-75.096;2022-08-21T05:44:18;18.50;99.90
15107;DHT22;7654;45.308;-75.096;2022-08-21T05:46:48;18.50;99.90
15107;DHT22;7654;45.308;-75.096;2022-08-21T05:49:18;18.50;99.90
15107;DHT22;7654;45.308;-75.096;2022-08-21T05:51:49;18.60;99.90
15107;DHT22;7654;45.308;-75.096;2022-08-21T05:54:19;18.60;99.90
15107;DHT22;7654;45.308;-75.096;2022-08-21T05:56:48;18.50;99.90
15107;DHT22;7654;45.308;-75.096;2022-08-21T05:59:19;18.50;99.90
15107;DHT22;7654;45.308;-75.096;2022-08-21T06:01:49;18.50;99.90
15107;DHT22;7654;45.308;-75.096;2022-08-21T06:04:20;18.40;99.90
15107;DHT22;7654;45.308;-75.096;2022-08-21T06:06:51;18.30;99.90
15107;DHT22;7654;45.308;-75.096;2022-08-21T06:09:21;18.30;99.90
15107;DHT22;7654;45.308;-75.096;2022-08-21T06:11:51;18.20;99.90
15107;DHT22;7654;45.308;-75.096;2022-08-21T06:14:20;18.20;99.90
15107;DHT22;7654;45.308;-75.096;2022-08-21T06:16:50;18.20;99.90
15107;DHT22;7654;45.308;-75.096;2022-08-21T06:19:19;18.10;99.90
15107;DHT22;7654;45.308;-75.096;2022-08-21T06:21:51;18.20;99.90
15107;DHT22;7654;45.308;-75.096;2022-08-21T06:24:21;18.20;99.90
15107;DHT22;7654;45.308;-75.096;2022-08-21T06:26:50;18.30;99.90
15107;DHT22;7654;45.308;-75.096;2022-08-21T06:29:20;18.30;99.90
15107;DHT22;7654;45.308;-75.096;2022-08-21T06:31:50;18.40;99.90
15107;DHT22;7654;45.308;-75.096;2022-08-21T06:34:20;18.40;99.90
15107;DHT22;7654;45.308;-75.096;2022-08-21T06:36:51;18.40;99.90
15107;DHT22;7654;45.308;-75.096;2022-08-21T06:39:22;18.40;99.90
15107;DHT22;7654;45.308;-75.096;2022-08-21T06:41:58;18.30;99.90
15107;DHT22;7654;45.308;-75.096;2022-08-21T06:44:29;18.30;99.90
15107;DHT22;7654;45.308;-75.096;2022-08-21T06:46:59;18.20;99.90
15107;DHT22;7654;45.308;-75.096;2022-08-21T06:49:29;18.20;99.90
15107;DHT22;7654;45.308;-75.096;2022-08-21T06:52:00;18.20;99.90
15107;DHT22;7654;45.308;-75.096;2022-08-21T06:54:30;18.30;99.90
15107;DHT22;7654;45.308;-75.096;2022-08-21T06:57:01;18.30;99.90
15107;DHT22;7654;45.308;-75.096;2022-08-21T06:59:31;18.30;99.90
15107;DHT22;7654;45.308;-75.096;2022-08-21T07:02:00;18.30;99.90
15107;DHT22;7654;45.308;-75.096;2022-08-21T07:04:30;18.20;99.90
15107;DHT22;7654;45.308;-75.096;2022-08-21T07:07:01;18.10;99.90
15107;DHT22;7654;45.308;-75.096;2022-08-21T07:09:31;18.10;99.90
15107;DHT22;7654;45.308;-75.096;2022-08-21T07:12:01;18.10;99.90
15107;DHT22;7654;45.308;-75.096;2022-08-21T07:14:31;18.00;99.90
15107;DHT22;7654;45.308;-75.096;2022-08-21T07:17:01;18.00;99.90
15107;DHT22;7654;45.308;-75.096;2022-08-21T07:19:30;18.00;99.90
15107;DHT22;7654;45.308;-75.096;2022-08-21T07:22:02;18.00;99.90
15107;DHT22;7654;45.308;-75.096;2022-08-21T07:24:33;17.90;99.90
15107;DHT22;7654;45.308;-75.096;2022-08-21T07:27:03;17.90;99.90
15107;DHT22;7654;45.308;-75.096;2022-08-21T07:29:36;17.80;99.90
15107;DHT22;7654;45.308;-75.096;2022-08-21T07:32:05;17.70;99.90
15107;DHT22;7654;45.308;-75.096;2022-08-21T07:34:35;17.60;99.90
15107;DHT22;7654;45.308;-75.096;2022-08-21T07:37:06;17.60;99.90
15107;DHT22;7654;45.308;-75.096;2022-08-21T07:39:36;17.50;99.90
15107;DHT22;7654;45.308;-75.096;2022-08-21T07:42:06;17.50;99.90
15107;DHT22;7654;45.308;-75.096;2022-08-21T07:44:36;17.50;99.90
15107;DHT22;7654;45.308;-75.096;2022-08-21T07:47:05;17.40;99.90
15107;DHT22;7654;45.308;-75.096;2022-08-21T07:49:36;17.40;99.90
15107;DHT22;7654;45.308;-75.096;2022-08-21T07:52:07;17.40;99.90
15107;DHT22;7654;45.308;-75.096;2022-08-21T07:54:37;17.40;99.90
15107;DHT22;7654;45.308;-75.096;2022-08-21T07:57:07;17.40;99.90
15107;DHT22;7654;45.308;-75.096;2022-08-21T07:59:37;17.40;99.90
15107;DHT22;7654;45.308;-75.096;2022-08-21T08:02:07;17.40;99.90
15107;DHT22;7654;45.308;-75.096;2022-08-21T08:04:38;17.40;99.90
15107;DHT22;7654;45.308;-75.096;2022-08-21T08:07:18;17.40;99.90
15107;DHT22;7654;45.308;-75.096;2022-08-21T08:09:48;17.50;99.90
15107;DHT22;7654;45.308;-75.096;2022-08-21T08:12:18;17.50;99.90
15107;DHT22;7654;45.308;-75.096;2022-08-21T08:14:48;17.60;99.90
15107;DHT22;7654;45.308;-75.096;2022-08-21T08:17:17;17.60;99.90
15107;DHT22;7654;45.308;-75.096;2022-08-21T08:19:50;17.50;99.90
15107;DHT22;7654;45.308;-75.096;2022-08-21T08:22:22;17.50;99.90
15107;DHT22;7654;45.308;-75.096;2022-08-21T08:24:52;17.50;99.90
15107;DHT22;7654;45.308;-75.096;2022-08-21T08:27:22;17.60;99.90
15107;DHT22;7654;45.308;-75.096;2022-08-21T08:29:52;17.60;99.90
15107;DHT22;7654;45.308;-75.096;2022-08-21T08:32:21;17.60;99.90
15107;DHT22;7654;45.308;-75.096;2022-08-21T08:34:51;17.60;99.90
15107;DHT22;7654;45.308;-75.096;2022-08-21T08:37:22;17.70;99.90
15107;DHT22;7654;45.308;-75.096;2022-08-21T08:40:00;17.70;99.90
15107;DHT22;7654;45.308;-75.096;2022-08-21T08:42:32;17.80;99.90
15107;DHT22;7654;45.308;-75.096;2022-08-21T08:45:03;17.80;99.90
15107;DHT22;7654;45.308;-75.096;2022-08-21T08:47:34;17.80;99.90
15107;DHT22;7654;45.308;-75.096;2022-08-21T08:50:06;17.90;99.90
15107;DHT22;7654;45.308;-75.096;2022-08-21T08:52:43;17.90;99.90
15107;DHT22;7654;45.308;-75.096;2022-08-21T08:55:15;18.00;99.90
15107;DHT22;7654;45.308;-75.096;2022-08-21T08:57:52;18.00;99.90
15107;DHT22;7654;45.308;-75.096;2022-08-21T09:00:22;18.00;99.90
15107;DHT22;7654;45.308;-75.096;2022-08-21T09:02:53;18.10;99.90
15107;DHT22;7654;45.308;-75.096;2022-08-21T09:05:24;18.20;99.90
15107;DHT22;7654;45.308;-75.096;2022-08-21T09:08:08;18.20;99.90
15107;DHT22;7654;45.308;-75.096;2022-08-21T09:10:47;18.30;99.90
15107;DHT22;7654;45.308;-75.096;2022-08-21T09:13:18;18.30;99.90
15107;DHT22;7654;45.308;-75.096;2022-08-21T09:15:51;18.30;99.90
15107;DHT22;7654;45.308;-75.096;2022-08-21T09:18:26;18.30;99.90
15107;DHT22;7654;45.308;-75.096;2022-08-21T09:21:06;18.30;99.90
15107;DHT22;7654;45.308;-75.096;2022-08-21T09:23:43;18.40;99.90
15107;DHT22;7654;45.308;-75.096;2022-08-21T09:26:17;18.30;99.90
15107;DHT22;7654;45.308;-75.096;2022-08-21T09:28:49;18.40;99.90
15107;DHT22;7654;45.308;-75.096;2022-08-21T09:31:21;18.40;99.90
15107;DHT22;7654;45.308;-75.096;2022-08-21T09:33:56;18.50;99.90
15107;DHT22;7654;45.308;-75.096;2022-08-21T09:36:38;18.50;99.90
15107;DHT22;7654;45.308;-75.096;2022-08-21T09:39:11;18.50;99.90
15107;DHT22;7654;45.308;-75.096;2022-08-21T09:41:41;18.40;99.90
15107;DHT22;7654;45.308;-75.096;2022-08-21T09:44:11;18.50;99.90
15107;DHT22;7654;45.308;-75.096;2022-08-21T09:46:49;18.50;99.90
15107;DHT22;7654;45.308;-75.096;2022-08-21T09:49:26;18.40;99.90
15107;DHT22;7654;45.308;-75.096;2022-08-21T09:51:56;18.40;99.90
15107;DHT22;7654;45.308;-75.096;2022-08-21T09:54:30;18.40;99.90
15107;DHT22;7654;45.308;-75.096;2022-08-21T09:57:01;18.30;99.90
15107;DHT22;7654;45.308;-75.096;2022-08-21T09:59:52;18.30;99.90
15107;DHT22;7654;45.308;-75.096;2022-08-21T10:02:26;18.10;99.90
15107;DHT22;7654;45.308;-75.096;2022-08-21T10:04:59;18.10;99.90
15107;DHT22;7654;45.308;-75.096;2022-08-21T10:07:30;18.00;99.90
15107;DHT22;7654;45.308;-75.096;2022-08-21T10:10:05;18.00;99.90
15107;DHT22;7654;45.308;-75.096;2022-08-21T10:12:39;18.00;99.90
15107;DHT22;7654;45.308;-75.096;2022-08-21T10:15:13;18.00;99.90
15107;DHT22;7654;45.308;-75.096;2022-08-21T10:17:46;18.00;99.90
15107;DHT22;7654;45.308;-75.096;2022-08-21T10:20:19;18.10;99.90
15107;DHT22;7654;45.308;-75.096;2022-08-21T10:22:51;18.10;99.90
15107;DHT22;7654;45.308;-75.096;2022-08-21T10:25:26;18.10;99.90
15107;DHT22;7654;45.308;-75.096;2022-08-21T10:27:59;18.10;99.90
15107;DHT22;7654;45.308;-75.096;2022-08-21T10:30:40;18.00;99.90
15107;DHT22;7654;45.308;-75.096;2022-08-21T10:35:44;18.00;99.90
15107;DHT22;7654;45.308;-75.096;2022-08-21T10:41:21;18.10;99.90
15107;DHT22;7654;45.308;-75.096;2022-08-21T10:43:57;18.10;99.90
15107;DHT22;7654;45.308;-75.096;2022-08-21T10:46:44;18.20;99.90
15107;DHT22;7654;45.308;-75.096;2022-08-21T10:49:21;18.20;99.90
15107;DHT22;7654;45.308;-75.096;2022-08-21T10:51:54;18.20;99.90
15107;DHT22;7654;45.308;-75.096;2022-08-21T10:54:28;18.30;99.90
15107;DHT22;7654;45.308;-75.096;2022-08-21T10:57:04;18.30;99.90
15107;DHT22;7654;45.308;-75.096;2022-08-21T10:59:38;18.40;99.90
15107;DHT22;7654;45.308;-75.096;2022-08-21T11:02:09;18.40;99.90
15107;DHT22;7654;45.308;-75.096;2022-08-21T11:04:48;18.40;99.90
15107;DHT22;7654;45.308;-75.096;2022-08-21T11:07:19;18.40;99.90
15107;DHT22;7654;45.308;-75.096;2022-08-21T11:09:50;18.50;99.90
15107;DHT22;7654;45.308;-75.096;2022-08-21T11:12:24;18.40;99.90
15107;DHT22;7654;45.308;-75.096;2022-08-21T11:14:59;18.50;99.90
15107;DHT22;7654;45.308;-75.096;2022-08-21T11:17:30;18.50;99.90
15107;DHT22;7654;45.308;-75.096;2022-08-21T11:20:03;18.60;99.90
15107;DHT22;7654;45.308;-75.096;2022-08-21T11:22:37;18.70;99.90
15107;DHT22;7654;45.308;-75.096;2022-08-21T11:25:09;18.80;99.90
15107;DHT22;7654;45.308;-75.096;2022-08-21T11:27:42;19.00;99.90
15107;DHT22;7654;45.308;-75.096;2022-08-21T11:30:13;19.20;99.90
15107;DHT22;7654;45.308;-75.096;2022-08-21T11:32:51;19.40;99.90
15107;DHT22;7654;45.308;-75.096;2022-08-21T11:35:26;19.50;99.90
15107;DHT22;7654;45.308;-75.096;2022-08-21T11:38:05;19.70;99.90
15107;DHT22;7654;45.308;-75.096;2022-08-21T11:40:46;19.70;99.90
15107;DHT22;7654;45.308;-75.096;2022-08-21T11:43:24;19.80;99.90
15107;DHT22;7654;45.308;-75.096;2022-08-21T11:45:59;19.90;99.90
15107;DHT22;7654;45.308;-75.096;2022-08-21T11:48:34;19.90;99.90
15107;DHT22;7654;45.308;-75.096;2022-08-21T11:51:07;20.00;99.90
15107;DHT22;7654;45.308;-75.096;2022-08-21T11:53:40;20.10;99.90
15107;DHT22;7654;45.308;-75.096;2022-08-21T11:56:18;20.20;99.90
15107;DHT22;7654;45.308;-75.096;2022-08-21T11:58:52;20.30;99.90
15107;DHT22;7654;45.308;-75.096;2022-08-21T12:01:25;20.40;99.90
15107;DHT22;7654;45.308;-75.096;2022-08-21T12:03:57;20.40;99.90
15107;DHT22;7654;45.308;-75.096;2022-08-21T12:06:28;20.60;99.90
15107;DHT22;7654;45.308;-75.096;2022-08-21T12:08:59;20.80;99.90
15107;DHT22;7654;45.308;-75.096;2022-08-21T12:11:29;20.80;99.90
15107;DHT22;7654;45.308;-75.096;2022-08-21T12:14:11;20.80;99.90
15107;DHT22;7654;45.308;-75.096;2022-08-21T12:16:41;21.00;99.90
15107;DHT22;7654;45.308;-75.096;2022-08-21T12:19:12;21.00;99.90
15107;DHT22;7654;45.308;-75.096;2022-08-21T12:21:49;21.20;99.90
15107;DHT22;7654;45.308;-75.096;2022-08-21T12:24:20;21.30;99.90
15107;DHT22;7654;45.308;-75.096;2022-08-21T12:27:12;21.40;99.90
15107;DHT22;7654;45.308;-75.096;2022-08-21T12:29:46;21.50;99.90
15107;DHT22;7654;45.308;-75.096;2022-08-21T12:32:23;21.60;99.90
15107;DHT22;7654;45.308;-75.096;2022-08-21T12:34:54;21.70;99.90
15107;DHT22;7654;45.308;-75.096;2022-08-21T12:37:27;21.80;99.90
15107;DHT22;7654;45.308;-75.096;2022-08-21T12:39:59;22.00;99.90
15107;DHT22;7654;45.308;-75.096;2022-08-21T12:42:31;22.20;99.90
15107;DHT22;7654;45.308;-75.096;2022-08-21T12:45:10;22.40;99.90
15107;DHT22;7654;45.308;-75.096;2022-08-21T12:47:43;22.50;99.90
15107;DHT22;7654;45.308;-75.096;2022-08-21T12:50:20;22.70;99.90
15107;DHT22;7654;45.308;-75.096;2022-08-21T12:52:54;22.80;99.90
15107;DHT22;7654;45.308;-75.096;2022-08-21T12:55:26;22.80;99.90
15107;DHT22;7654;45.308;-75.096;2022-08-21T12:57:56;23.00;99.90
15107;DHT22;7654;45.308;-75.096;2022-08-21T13:00:28;23.10;99.90
15107;DHT22;7654;45.308;-75.096;2022-08-21T13:02:58;23.20;99.90
15107;DHT22;7654;45.308;-75.096;2022-08-21T13:05:32;23.40;99.90
15107;DHT22;7654;45.308;-75.096;2022-08-21T13:08:05;23.50;99.90
15107;DHT22;7654;45.308;-75.096;2022-08-21T13:10:36;23.70;99.90
15107;DHT22;7654;45.308;-75.096;2022-08-21T13:13:13;23.90;99.90
15107;DHT22;7654;45.308;-75.096;2022-08-21T13:15:57;24.10;99.90
15107;DHT22;7654;45.308;-75.096;2022-08-21T13:18:35;24.20;99.90
15107;DHT22;7654;45.308;-75.096;2022-08-21T13:21:12;24.30;99.90
15107;DHT22;7654;45.308;-75.096;2022-08-21T13:23:42;24.40;99.90
15107;DHT22;7654;45.308;-75.096;2022-08-21T13:26:17;24.40;99.90
15107;DHT22;7654;45.308;-75.096;2022-08-21T13:28:48;24.40;99.90
15107;DHT22;7654;45.308;-75.096;2022-08-21T13:31:24;24.50;99.90
15107;DHT22;7654;45.308;-75.096;2022-08-21T13:33:56;24.70;99.90
15107;DHT22;7654;45.308;-75.096;2022-08-21T13:36:30;24.80;99.90
15107;DHT22;7654;45.308;-75.096;2022-08-21T13:39:03;25.00;99.90
15107;DHT22;7654;45.308;-75.096;2022-08-21T13:41:35;25.10;99.90
15107;DHT22;7654;45.308;-75.096;2022-08-21T13:44:15;25.20;99.90
15107;DHT22;7654;45.308;-75.096;2022-08-21T13:46:50;25.30;99.90
15107;DHT22;7654;45.308;-75.096;2022-08-21T13:49:26;25.40;99.90
15107;DHT22;7654;45.308;-75.096;2022-08-21T13:51:59;25.40;99.90
15107;DHT22;7654;45.308;-75.096;2022-08-21T13:54:34;25.60;99.90
15107;DHT22;7654;45.308;-75.096;2022-08-21T13:57:16;25.60;99.90
15107;DHT22;7654;45.308;-75.096;2022-08-21T13:59:46;25.50;99.90
15107;DHT22;7654;45.308;-75.096;2022-08-21T14:02:21;25.40;99.90
15107;DHT22;7654;45.308;-75.096;2022-08-21T14:04:55;25.40;99.90
15107;DHT22;7654;45.308;-75.096;2022-08-21T14:07:29;25.40;99.90
15107;DHT22;7654;45.308;-75.096;2022-08-21T14:10:02;25.30;99.90
15107;DHT22;7654;45.308;-75.096;2022-08-21T14:12:37;25.40;99.90
15107;DHT22;7654;45.308;-75.096;2022-08-21T14:15:09;25.40;99.90
15107;DHT22;7654;45.308;-75.096;2022-08-21T14:17:44;25.50;99.90
15107;DHT22;7654;45.308;-75.096;2022-08-21T14:20:28;25.60;99.90
15107;DHT22;7654;45.308;-75.096;2022-08-21T14:23:00;25.80;99.90
15107;DHT22;7654;45.308;-75.096;2022-08-21T14:25:36;26.00;99.90
15107;DHT22;7654;45.308;-75.096;2022-08-21T14:28:19;26.10;99.90
15107;DHT22;7654;45.308;-75.096;2022-08-21T14:30:55;26.20;99.90
15107;DHT22;7654;45.308;-75.096;2022-08-21T14:33:33;26.30;99.90
15107;DHT22;7654;45.308;-75.096;2022-08-21T14:36:03;26.30;99.90
15107;DHT22;7654;45.308;-75.096;2022-08-21T14:38:36;26.40;99.90
15107;DHT22;7654;45.308;-75.096;2022-08-21T14:41:15;26.50;99.90
15107;DHT22;7654;45.308;-75.096;2022-08-21T14:43:46;26.70;99.90
15107;DHT22;7654;45.308;-75.096;2022-08-21T14:46:35;26.80;99.90
15107;DHT22;7654;45.308;-75.096;2022-08-21T14:49:27;26.90;99.90
15107;DHT22;7654;45.308;-75.096;2022-08-21T14:51:57;27.00;99.90
15107;DHT22;7654;45.308;-75.096;2022-08-21T14:54:28;27.00;99.90
15107;DHT22;7654;45.308;-75.096;2022-08-21T14:57:00;27.10;99.90
15107;DHT22;7654;45.308;-75.096;2022-08-21T14:59:31;27.30;99.90
15107;DHT22;7654;45.308;-75.096;2022-08-21T15:02:02;27.40;99.90
15107;DHT22;7654;45.308;-75.096;2022-08-21T15:04:35;27.50;99.90
15107;DHT22;7654;45.308;-75.096;2022-08-21T15:07:05;27.80;99.90
15107;DHT22;7654;45.308;-75.096;2022-08-21T15:09:35;27.80;99.90
15107;DHT22;7654;45.308;-75.096;2022-08-21T15:12:06;27.90;99.90
15107;DHT22;7654;45.308;-75.096;2022-08-21T15:14:39;28.10;99.90
15107;DHT22;7654;45.308;-75.096;2022-08-21T15:17:10;28.30;99.90
15107;DHT22;7654;45.308;-75.096;2022-08-21T15:19:42;28.20;99.90
15107;DHT22;7654;45.308;-75.096;2022-08-21T15:22:12;28.10;99.90
15107;DHT22;7654;45.308;-75.096;2022-08-21T15:24:54;28.00;99.90
15107;DHT22;7654;45.308;-75.096;2022-08-21T15:27:24;27.90;99.90
15107;DHT22;7654;45.308;-75.096;2022-08-21T15:29:55;27.90;99.90
15107;DHT22;7654;45.308;-75.096;2022-08-21T15:32:26;27.80;99.90
15107;DHT22;7654;45.308;-75.096;2022-08-21T15:35:00;27.80;99.90
15107;DHT22;7654;45.308;-75.096;2022-08-21T15:37:31;27.90;99.90
15107;DHT22;7654;45.308;-75.096;2022-08-21T15:40:02;28.00;99.90
15107;DHT22;7654;45.308;-75.096;2022-08-21T15:42:33;28.10;99.90
15107;DHT22;7654;45.308;-75.096;2022-08-21T15:45:05;28.00;99.90
15107;DHT22;7654;45.308;-75.096;2022-08-21T15:47:37;28.00;99.90
15107;DHT22;7654;45.308;-75.096;2022-08-21T15:50:11;27.90;99.90
15107;DHT22;7654;45.308;-75.096;2022-08-21T15:52:42;27.90;99.90
15107;DHT22;7654;45.308;-75.096;2022-08-21T15:55:13;28.00;99.90
15107;DHT22;7654;45.308;-75.096;2022-08-21T15:57:45;27.90;99.90
15107;DHT22;7654;45.308;-75.096;2022-08-21T16:00:25;28.00;99.90
15107;DHT22;7654;45.308;-75.096;2022-08-21T16:02:58;28.20;99.90
15107;DHT22;7654;45.308;-75.096;2022-08-21T16:05:30;28.20;99.90
15107;DHT22;7654;45.308;-75.096;2022-08-21T16:08:01;28.20;99.90
15107;DHT22;7654;45.308;-75.096;2022-08-21T16:10:32;28.20;99.90
15107;DHT22;7654;45.308;-75.096;2022-08-21T16:13:07;28.20;99.90
15107;DHT22;7654;45.308;-75.096;2022-08-21T16:15:41;28.00;99.90
15107;DHT22;7654;45.308;-75.096;2022-08-21T16:18:11;27.90;99.90
15107;DHT22;7654;45.308;-75.096;2022-08-21T16:20:43;27.80;99.90
15107;DHT22;7654;45.308;-75.096;2022-08-21T16:23:14;27.60;99.90
15107;DHT22;7654;45.308;-75.096;2022-08-21T16:25:45;27.40;99.90
15107;DHT22;7654;45.308;-75.096;2022-08-21T16:28:17;27.50;99.90
15107;DHT22;7654;45.308;-75.096;2022-08-21T16:30:49;27.60;99.90
15107;DHT22;7654;45.308;-75.096;2022-08-21T16:33:24;27.60;99.90
15107;DHT22;7654;45.308;-75.096;2022-08-21T16:35:58;27.50;99.90
15107;DHT22;7654;45.308;-75.096;2022-08-21T16:38:29;27.40;99.90
15107;DHT22;7654;45.308;-75.096;2022-08-21T16:41:03;27.10;99.90
15107;DHT22;7654;45.308;-75.096;2022-08-21T16:43:34;26.90;99.90
15107;DHT22;7654;45.308;-75.096;2022-08-21T16:46:04;26.70;99.90
15107;DHT22;7654;45.308;-75.096;2022-08-21T16:48:34;26.60;99.90
15107;DHT22;7654;45.308;-75.096;2022-08-21T16:51:06;26.30;99.90
15107;DHT22;7654;45.308;-75.096;2022-08-21T16:53:35;25.60;99.90
15107;DHT22;7654;45.308;-75.096;2022-08-21T16:56:05;24.90;99.90
15107;DHT22;7654;45.308;-75.096;2022-08-21T16:58:36;24.30;99.90
15107;DHT22;7654;45.308;-75.096;2022-08-21T17:01:08;23.70;99.90
15107;DHT22;7654;45.308;-75.096;2022-08-21T17:03:40;23.10;99.90
15107;DHT22;7654;45.308;-75.096;2022-08-21T17:06:13;22.60;99.90
15107;DHT22;7654;45.308;-75.096;2022-08-21T17:08:43;22.30;99.90
15107;DHT22;7654;45.308;-75.096;2022-08-21T17:11:20;22.20;99.90
15107;DHT22;7654;45.308;-75.096;2022-08-21T17:14:04;22.10;99.90
15107;DHT22;7654;45.308;-75.096;2022-08-21T17:16:36;22.20;99.90
15107;DHT22;7654;45.308;-75.096;2022-08-21T17:19:06;22.20;99.90
15107;DHT22;7654;45.308;-75.096;2022-08-21T17:21:37;22.30;99.90
15107;DHT22;7654;45.308;-75.096;2022-08-21T17:24:07;22.40;99.90
15107;DHT22;7654;45.308;-75.096;2022-08-21T17:26:37;22.50;99.90
15107;DHT22;7654;45.308;-75.096;2022-08-21T17:29:07;22.60;99.90
15107;DHT22;7654;45.308;-75.096;2022-08-21T17:31:39;22.70;99.90
15107;DHT22;7654;45.308;-75.096;2022-08-21T17:34:09;22.80;99.90
15107;DHT22;7654;45.308;-75.096;2022-08-21T17:36:40;22.90;99.90
15107;DHT22;7654;45.308;-75.096;2022-08-21T17:39:10;23.00;99.90
15107;DHT22;7654;45.308;-75.096;2022-08-21T17:41:48;23.10;99.90